sensor_id;sensor_type;location;lat;lon;timestamp;P1;durP1;ratioP1;P2;durP2;ratioP2
44456;SDS011;30159;49.316;8.558;2024-03-02T00:01:30;8.80;;;5.60;;
44456;SDS011;30159;49.316;8.558;2024-03-02T00:03:56;9.87;;;7.27;;
44456;SDS011;30159;49.316;8.558;2024-03-02T00:06:23;13.40;;;8.30;;
44456;SDS011;30159;49.316;8.558;2024-03-02T00:08:55;11.73;;;6.37;;
44456;SDS011;30159;49.316;8.558;2024-03-02T00:11:25;13.40;;;6.73;;
44456;SDS011;30159;49.316;8.558;2024-03-02T00:13:52;10.23;;;6.57;;
44456;SDS011;30159;49.316;8.558;2024-03-02T00:16:19;9.00;;;5.57;;
44456;SDS011;30159;49.316;8.558;2024-03-02T00:18:46;9.17;;;5.93;;
44456;SDS011;30159;49.316;8.558;2024-03-02T00:21:13;9.27;;;6.17;;
44456;SDS011;30159;49.316;8.558;2024-03-02T00:23:41;6.97;;;5.67;;
44456;SDS011;30159;49.316;8.558;2024-03-02T00:26:08;10.50;;;5.90;;
44456;SDS011;30159;49.316;8.558;2024-03-02T00:28:40;10.83;;;6.80;;
44456;SDS011;30159;49.316;8.558;2024-03-02T00:31:09;10.00;;;6.70;;
44456;SDS011;30159;49.316;8.558;2024-03-02T00:33:39;10.60;;;6.13;;
44456;SDS011;30159;49.316;8.558;2024-03-02T00:36:08;8.87;;;6.33;;
44456;SDS011;30159;49.316;8.558;2024-03-02T00:38:40;16.07;;;7.37;;
44456;SDS011;30159;49.316;8.558;2024-03-02T00:41:14;7.73;;;5.87;;
44456;SDS011;30159;49.316;8.558;2024-03-02T00:43:44;10.80;;;5.87;;
44456;SDS011;30159;49.316;8.558;2024-03-02T00:46:15;9.57;;;6.97;;
44456;SDS011;30159;49.316;8.558;2024-03-02T00:48:47;9.53;;;6.13;;
44456;SDS011;30159;49.316;8.558;2024-03-02T00:51:17;9.17;;;5.37;;
44456;SDS011;30159;49.316;8.558;2024-03-02T00:53:44;10.50;;;6.17;;
44456;SDS011;30159;49.316;8.558;2024-03-02T00:56:11;12.37;;;5.97;;
44456;SDS011;30159;49.316;8.558;2024-03-02T00:58:38;7.37;;;5.40;;
44456;SDS011;30159;49.316;8.558;2024-03-02T01:01:06;7.20;;;4.60;;
44456;SDS011;30159;49.316;8.558;2024-03-02T01:03:33;16.00;;;6.07;;
44456;SDS011;30159;49.316;8.558;2024-03-02T01:06:00;11.30;;;6.87;;
44456;SDS011;30159;49.316;8.558;2024-03-02T01:08:27;11.23;;;7.07;;
44456;SDS011;30159;49.316;8.558;2024-03-02T01:10:54;14.13;;;7.23;;
44456;SDS011;30159;49.316;8.558;2024-03-02T01:13:21;8.83;;;6.07;;
44456;SDS011;30159;49.316;8.558;2024-03-02T01:15:48;9.53;;;6.40;;
44456;SDS011;30159;49.316;8.558;2024-03-02T01:18:16;7.53;;;4.90;;
44456;SDS011;30159;49.316;8.558;2024-03-02T01:20:43;9.83;;;6.20;;
44456;SDS011;30159;49.316;8.558;2024-03-02T01:23:09;12.27;;;5.90;;
44456;SDS011;30159;49.316;8.558;2024-03-02T01:25:36;7.23;;;5.60;;
44456;SDS011;30159;49.316;8.558;2024-03-02T01:28:03;11.87;;;6.17;;
44456;SDS011;30159;49.316;8.558;2024-03-02T01:30:30;11.57;;;6.50;;
44456;SDS011;30159;49.316;8.558;2024-03-02T01:32:56;14.20;;;7.00;;
44456;SDS011;30159;49.316;8.558;2024-03-02T01:35:25;7.93;;;4.93;;
44456;SDS011;30159;49.316;8.558;2024-03-02T01:37:52;15.67;;;6.87;;
44456;SDS011;30159;49.316;8.558;2024-03-02T01:40:19;7.97;;;5.70;;
44456;SDS011;30159;49.316;8.558;2024-03-02T01:42:46;12.17;;;6.90;;
44456;SDS011;30159;49.316;8.558;2024-03-02T01:45:12;15.33;;;7.00;;
44456;SDS011;30159;49.316;8.558;2024-03-02T01:47:39;13.60;;;6.70;;
44456;SDS011;30159;49.316;8.558;2024-03-02T01:50:06;11.50;;;8.00;;
44456;SDS011;30159;49.316;8.558;2024-03-02T01:52:35;11.40;;;5.90;;
44456;SDS011;30159;49.316;8.558;2024-03-02T01:55:01;13.63;;;6.50;;
44456;SDS011;30159;49.316;8.558;2024-03-02T01:57:28;11.70;;;7.10;;
44456;SDS011;30159;49.316;8.558;2024-03-02T01:59:56;9.43;;;7.10;;
44456;SDS011;30159;49.316;8.558;2024-03-02T02:02:22;10.67;;;6.70;;
44456;SDS011;30159;49.316;8.558;2024-03-02T02:04:49;7.00;;;5.83;;
44456;SDS011;30159;49.316;8.558;2024-03-02T02:07:16;12.33;;;7.87;;
44456;SDS011;30159;49.316;8.558;2024-03-02T02:09:44;11.30;;;6.40;;
44456;SDS011;30159;49.316;8.558;2024-03-02T02:12:10;8.60;;;6.17;;
44456;SDS011;30159;49.316;8.558;2024-03-02T02:14:37;10.53;;;7.50;;
44456;SDS011;30159;49.316;8.558;2024-03-02T02:17:05;8.37;;;5.60;;
44456;SDS011;30159;49.316;8.558;2024-03-02T02:19:30;21.77;;;7.63;;
44456;SDS011;30159;49.316;8.558;2024-03-02T02:21:58;19.37;;;7.17;;
44456;SDS011;30159;49.316;8.558;2024-03-02T02:24:25;10.87;;;6.40;;
44456;SDS011;30159;49.316;8.558;2024-03-02T02:26:52;15.93;;;6.33;;
44456;SDS011;30159;49.316;8.558;2024-03-02T02:29:18;9.93;;;6.67;;
44456;SDS011;30159;49.316;8.558;2024-03-02T02:31:45;14.40;;;6.67;;
44456;SDS011;30159;49.316;8.558;2024-03-02T02:34:11;13.67;;;6.57;;
44456;SDS011;30159;49.316;8.558;2024-03-02T02:36:40;9.00;;;5.70;;
44456;SDS011;30159;49.316;8.558;2024-03-02T02:39:09;9.70;;;6.00;;
44456;SDS011;30159;49.316;8.558;2024-03-02T02:41:37;10.37;;;5.10;;
44456;SDS011;30159;49.316;8.558;2024-03-02T02:44:04;13.47;;;6.60;;
44456;SDS011;30159;49.316;8.558;2024-03-02T02:46:31;9.67;;;5.80;;
44456;SDS011;30159;49.316;8.558;2024-03-02T02:48:58;13.27;;;6.80;;
44456;SDS011;30159;49.316;8.558;2024-03-02T02:51:24;9.13;;;6.77;;
44456;SDS011;30159;49.316;8.558;2024-03-02T02:53:51;11.37;;;6.50;;
44456;SDS011;30159;49.316;8.558;2024-03-02T02:56:19;8.37;;;6.60;;
44456;SDS011;30159;49.316;8.558;2024-03-02T02:58:46;15.70;;;6.07;;
44456;SDS011;30159;49.316;8.558;2024-03-02T03:01:12;8.97;;;6.00;;
44456;SDS011;30159;49.316;8.558;2024-03-02T03:03:39;11.90;;;6.97;;
44456;SDS011;30159;49.316;8.558;2024-03-02T03:06:06;7.70;;;5.60;;
44456;SDS011;30159;49.316;8.558;2024-03-02T03:08:32;16.70;;;6.57;;
44456;SDS011;30159;49.316;8.558;2024-03-02T03:10:59;8.87;;;5.60;;
44456;SDS011;30159;49.316;8.558;2024-03-02T03:13:27;6.70;;;4.90;;
44456;SDS011;30159;49.316;8.558;2024-03-02T03:15:54;12.43;;;6.90;;
44456;SDS011;30159;49.316;8.558;2024-03-02T03:18:20;12.17;;;7.47;;
44456;SDS011;30159;49.316;8.558;2024-03-02T03:20:47;8.63;;;6.77;;
44456;SDS011;30159;49.316;8.558;2024-03-02T03:23:13;17.33;;;7.97;;
44456;SDS011;30159;49.316;8.558;2024-03-02T03:25:41;10.40;;;5.90;;
44456;SDS011;30159;49.316;8.558;2024-03-02T03:28:08;11.73;;;6.70;;
44456;SDS011;30159;49.316;8.558;2024-03-02T03:30:37;11.80;;;7.47;;
44456;SDS011;30159;49.316;8.558;2024-03-02T03:33:04;14.80;;;6.43;;
44456;SDS011;30159;49.316;8.558;2024-03-02T03:35:31;9.23;;;6.00;;
44456;SDS011;30159;49.316;8.558;2024-03-02T03:37:58;12.80;;;6.07;;
44456;SDS011;30159;49.316;8.558;2024-03-02T03:40:24;14.30;;;6.80;;
44456;SDS011;30159;49.316;8.558;2024-03-02T03:42:51;9.50;;;6.60;;
44456;SDS011;30159;49.316;8.558;2024-03-02T03:45:19;12.37;;;6.43;;
44456;SDS011;30159;49.316;8.558;2024-03-02T03:47:47;13.00;;;6.90;;
44456;SDS011;30159;49.316;8.558;2024-03-02T03:50:14;12.23;;;6.40;;
44456;SDS011;30159;49.316;8.558;2024-03-02T03:52:41;13.57;;;7.33;;
44456;SDS011;30159;49.316;8.558;2024-03-02T03:55:08;13.03;;;7.17;;
44456;SDS011;30159;49.316;8.558;2024-03-02T03:57:35;11.93;;;7.37;;
44456;SDS011;30159;49.316;8.558;2024-03-02T04:00:02;18.73;;;7.60;;
44456;SDS011;30159;49.316;8.558;2024-03-02T04:02:29;7.27;;;6.20;;
44456;SDS011;30159;49.316;8.558;2024-03-02T04:04:57;9.50;;;6.47;;
44456;SDS011;30159;49.316;8.558;2024-03-02T04:07:24;10.20;;;5.20;;
44456;SDS011;30159;49.316;8.558;2024-03-02T04:09:51;14.23;;;7.67;;
44456;SDS011;30159;49.316;8.558;2024-03-02T04:12:17;13.23;;;7.00;;
44456;SDS011;30159;49.316;8.558;2024-03-02T04:14:44;10.67;;;6.50;;
44456;SDS011;30159;49.316;8.558;2024-03-02T04:17:10;10.93;;;6.57;;
44456;SDS011;30159;49.316;8.558;2024-03-02T04:19:38;11.33;;;6.80;;
44456;SDS011;30159;49.316;8.558;2024-03-02T04:22:06;10.47;;;6.17;;
44456;SDS011;30159;49.316;8.558;2024-03-02T04:24:33;14.63;;;6.60;;
44456;SDS011;30159;49.316;8.558;2024-03-02T04:26:59;14.20;;;6.80;;
44456;SDS011;30159;49.316;8.558;2024-03-02T04:29:27;12.47;;;6.30;;
44456;SDS011;30159;49.316;8.558;2024-03-02T04:31:54;9.90;;;6.50;;
44456;SDS011;30159;49.316;8.558;2024-03-02T04:34:20;11.17;;;5.80;;
44456;SDS011;30159;49.316;8.558;2024-03-02T04:36:47;8.73;;;5.90;;
44456;SDS011;30159;49.316;8.558;2024-03-02T04:39:15;12.80;;;6.80;;
44456;SDS011;30159;49.316;8.558;2024-03-02T04:41:42;12.33;;;5.40;;
44456;SDS011;30159;49.316;8.558;2024-03-02T04:44:08;12.80;;;6.77;;
44456;SDS011;30159;49.316;8.558;2024-03-02T04:46:35;12.73;;;6.77;;
44456;SDS011;30159;49.316;8.558;2024-03-02T04:49:01;10.50;;;5.57;;
44456;SDS011;30159;49.316;8.558;2024-03-02T04:51:28;9.80;;;5.43;;
44456;SDS011;30159;49.316;8.558;2024-03-02T04:53:55;10.63;;;5.83;;
44456;SDS011;30159;49.316;8.558;2024-03-02T04:56:22;12.83;;;7.00;;
44456;SDS011;30159;49.316;8.558;2024-03-02T04:59:03;8.17;;;6.27;;
44456;SDS011;30159;49.316;8.558;2024-03-02T05:01:29;14.00;;;7.03;;
44456;SDS011;30159;49.316;8.558;2024-03-02T05:03:56;9.90;;;6.70;;
44456;SDS011;30159;49.316;8.558;2024-03-02T05:06:23;7.17;;;4.70;;
44456;SDS011;30159;49.316;8.558;2024-03-02T05:08:49;8.07;;;5.97;;
44456;SDS011;30159;49.316;8.558;2024-03-02T05:11:16;9.27;;;6.47;;
44456;SDS011;30159;49.316;8.558;2024-03-02T05:13:58;8.40;;;5.47;;
44456;SDS011;30159;49.316;8.558;2024-03-02T05:16:24;17.87;;;7.47;;
44456;SDS011;30159;49.316;8.558;2024-03-02T05:18:51;9.87;;;5.00;;
44456;SDS011;30159;49.316;8.558;2024-03-02T05:21:17;8.03;;;5.70;;
44456;SDS011;30159;49.316;8.558;2024-03-02T05:23:44;8.83;;;4.53;;
44456;SDS011;30159;49.316;8.558;2024-03-02T05:26:10;5.90;;;4.67;;
44456;SDS011;30159;49.316;8.558;2024-03-02T05:28:37;8.00;;;5.00;;
44456;SDS011;30159;49.316;8.558;2024-03-02T05:31:05;11.80;;;5.90;;
44456;SDS011;30159;49.316;8.558;2024-03-02T05:33:32;6.60;;;4.43;;
44456;SDS011;30159;49.316;8.558;2024-03-02T05:36:02;7.83;;;6.10;;
44456;SDS011;30159;49.316;8.558;2024-03-02T05:38:29;10.63;;;5.23;;
44456;SDS011;30159;49.316;8.558;2024-03-02T05:40:56;11.13;;;6.83;;
44456;SDS011;30159;49.316;8.558;2024-03-02T05:43:22;11.67;;;6.00;;
44456;SDS011;30159;49.316;8.558;2024-03-02T05:45:49;10.93;;;6.93;;
44456;SDS011;30159;49.316;8.558;2024-03-02T05:48:17;10.50;;;6.27;;
44456;SDS011;30159;49.316;8.558;2024-03-02T05:50:44;14.57;;;6.33;;
44456;SDS011;30159;49.316;8.558;2024-03-02T05:53:10;13.30;;;6.60;;
44456;SDS011;30159;49.316;8.558;2024-03-02T05:55:37;9.50;;;5.43;;
44456;SDS011;30159;49.316;8.558;2024-03-02T05:58:03;12.90;;;6.73;;
44456;SDS011;30159;49.316;8.558;2024-03-02T06:00:47;8.33;;;5.13;;
44456;SDS011;30159;49.316;8.558;2024-03-02T06:03:14;7.73;;;6.20;;
44456;SDS011;30159;49.316;8.558;2024-03-02T06:05:42;6.90;;;5.00;;
44456;SDS011;30159;49.316;8.558;2024-03-02T06:08:08;5.87;;;4.40;;
44456;SDS011;30159;49.316;8.558;2024-03-02T06:10:35;14.63;;;6.97;;
44456;SDS011;30159;49.316;8.558;2024-03-02T06:13:02;9.83;;;5.90;;
44456;SDS011;30159;49.316;8.558;2024-03-02T06:15:29;10.13;;;6.03;;
44456;SDS011;30159;49.316;8.558;2024-03-02T06:17:55;10.27;;;5.37;;
44456;SDS011;30159;49.316;8.558;2024-03-02T06:20:22;10.13;;;5.40;;
44456;SDS011;30159;49.316;8.558;2024-03-02T06:22:50;12.03;;;5.13;;
44456;SDS011;30159;49.316;8.558;2024-03-02T06:25:16;10.80;;;5.80;;
44456;SDS011;30159;49.316;8.558;2024-03-02T06:27:43;9.37;;;6.13;;
44456;SDS011;30159;49.316;8.558;2024-03-02T06:30:10;9.80;;;5.43;;
44456;SDS011;30159;49.316;8.558;2024-03-02T06:32:37;10.47;;;5.43;;
44456;SDS011;30159;49.316;8.558;2024-03-02T06:35:04;10.90;;;6.67;;
44456;SDS011;30159;49.316;8.558;2024-03-02T06:37:35;9.40;;;6.20;;
44456;SDS011;30159;49.316;8.558;2024-03-02T06:40:03;11.57;;;5.77;;
44456;SDS011;30159;49.316;8.558;2024-03-02T06:42:32;10.67;;;6.77;;
44456;SDS011;30159;49.316;8.558;2024-03-02T06:44:59;9.10;;;6.30;;
44456;SDS011;30159;49.316;8.558;2024-03-02T06:47:25;14.63;;;6.97;;
44456;SDS011;30159;49.316;8.558;2024-03-02T06:49:52;11.73;;;6.73;;
44456;SDS011;30159;49.316;8.558;2024-03-02T06:52:19;9.00;;;6.47;;
44456;SDS011;30159;49.316;8.558;2024-03-02T06:54:45;8.43;;;5.57;;
44456;SDS011;30159;49.316;8.558;2024-03-02T06:57:14;9.00;;;6.17;;
44456;SDS011;30159;49.316;8.558;2024-03-02T06:59:42;10.07;;;6.80;;
44456;SDS011;30159;49.316;8.558;2024-03-02T07:02:08;10.37;;;5.90;;
44456;SDS011;30159;49.316;8.558;2024-03-02T07:04:35;13.83;;;6.90;;
44456;SDS011;30159;49.316;8.558;2024-03-02T07:07:01;12.47;;;6.43;;
44456;SDS011;30159;49.316;8.558;2024-03-02T07:09:28;9.60;;;6.73;;
44456;SDS011;30159;49.316;8.558;2024-03-02T07:11:55;13.93;;;6.93;;
44456;SDS011;30159;49.316;8.558;2024-03-02T07:14:22;9.03;;;6.53;;
44456;SDS011;30159;49.316;8.558;2024-03-02T07:17:09;13.37;;;6.00;;
44456;SDS011;30159;49.316;8.558;2024-03-02T07:19:37;11.03;;;6.20;;
44456;SDS011;30159;49.316;8.558;2024-03-02T07:22:05;9.90;;;5.90;;
44456;SDS011;30159;49.316;8.558;2024-03-02T07:24:33;11.93;;;5.70;;
44456;SDS011;30159;49.316;8.558;2024-03-02T07:27:05;13.37;;;5.77;;
44456;SDS011;30159;49.316;8.558;2024-03-02T07:29:34;12.83;;;6.20;;
44456;SDS011;30159;49.316;8.558;2024-03-02T07:32:00;12.07;;;6.33;;
44456;SDS011;30159;49.316;8.558;2024-03-02T07:34:27;9.77;;;6.77;;
44456;SDS011;30159;49.316;8.558;2024-03-02T07:36:53;13.47;;;6.93;;
44456;SDS011;30159;49.316;8.558;2024-03-02T07:39:20;19.70;;;6.20;;
44456;SDS011;30159;49.316;8.558;2024-03-02T07:41:47;14.47;;;7.10;;
44456;SDS011;30159;49.316;8.558;2024-03-02T07:44:14;13.60;;;6.90;;
44456;SDS011;30159;49.316;8.558;2024-03-02T07:46:42;12.20;;;7.33;;
44456;SDS011;30159;49.316;8.558;2024-03-02T07:49:09;9.73;;;6.10;;
44456;SDS011;30159;49.316;8.558;2024-03-02T07:51:36;12.70;;;6.90;;
44456;SDS011;30159;49.316;8.558;2024-03-02T07:54:03;12.33;;;7.47;;
44456;SDS011;30159;49.316;8.558;2024-03-02T07:56:29;14.00;;;6.73;;
44456;SDS011;30159;49.316;8.558;2024-03-02T07:58:56;13.00;;;6.83;;
44456;SDS011;30159;49.316;8.558;2024-03-02T08:01:26;12.80;;;5.43;;
44456;SDS011;30159;49.316;8.558;2024-03-02T08:03:54;10.93;;;5.43;;
44456;SDS011;30159;49.316;8.558;2024-03-02T08:06:23;9.93;;;7.70;;
44456;SDS011;30159;49.316;8.558;2024-03-02T08:08:52;16.83;;;6.03;;
44456;SDS011;30159;49.316;8.558;2024-03-02T08:11:19;7.93;;;5.83;;
44456;SDS011;30159;49.316;8.558;2024-03-02T08:13:46;8.27;;;5.83;;
44456;SDS011;30159;49.316;8.558;2024-03-02T08:16:12;9.27;;;6.13;;
44456;SDS011;30159;49.316;8.558;2024-03-02T08:18:39;10.13;;;6.03;;
44456;SDS011;30159;49.316;8.558;2024-03-02T08:21:07;7.60;;;5.90;;
44456;SDS011;30159;49.316;8.558;2024-03-02T08:23:34;8.43;;;6.27;;
44456;SDS011;30159;49.316;8.558;2024-03-02T08:26:01;7.43;;;5.40;;
44456;SDS011;30159;49.316;8.558;2024-03-02T08:28:28;7.30;;;4.93;;
44456;SDS011;30159;49.316;8.558;2024-03-02T08:30:55;10.00;;;6.17;;
44456;SDS011;30159;49.316;8.558;2024-03-02T08:33:22;8.73;;;5.07;;
44456;SDS011;30159;49.316;8.558;2024-03-02T08:35:48;8.33;;;5.83;;
44456;SDS011;30159;49.316;8.558;2024-03-02T08:38:16;9.50;;;5.17;;
44456;SDS011;30159;49.316;8.558;2024-03-02T08:40:42;6.87;;;5.33;;
44456;SDS011;30159;49.316;8.558;2024-03-02T08:43:09;6.50;;;4.87;;
44456;SDS011;30159;49.316;8.558;2024-03-02T08:45:35;6.20;;;4.40;;
44456;SDS011;30159;49.316;8.558;2024-03-02T08:48:02;5.47;;;4.23;;
44456;SDS011;30159;49.316;8.558;2024-03-02T08:50:29;6.23;;;3.90;;
44456;SDS011;30159;49.316;8.558;2024-03-02T08:52:56;6.03;;;4.40;;
44456;SDS011;30159;49.316;8.558;2024-03-02T08:55:24;4.50;;;3.97;;
44456;SDS011;30159;49.316;8.558;2024-03-02T08:57:50;5.77;;;4.13;;
44456;SDS011;30159;49.316;8.558;2024-03-02T09:00:17;8.87;;;4.07;;
44456;SDS011;30159;49.316;8.558;2024-03-02T09:02:44;10.43;;;4.30;;
44456;SDS011;30159;49.316;8.558;2024-03-02T09:05:11;7.70;;;4.87;;
44456;SDS011;30159;49.316;8.558;2024-03-02T09:07:38;3.87;;;3.40;;
44456;SDS011;30159;49.316;8.558;2024-03-02T09:10:05;3.37;;;3.03;;
44456;SDS011;30159;49.316;8.558;2024-03-02T09:12:33;3.30;;;2.70;;
44456;SDS011;30159;49.316;8.558;2024-03-02T09:15:00;6.97;;;3.77;;
44456;SDS011;30159;49.316;8.558;2024-03-02T09:17:28;4.73;;;2.97;;
44456;SDS011;30159;49.316;8.558;2024-03-02T09:19:55;4.27;;;3.87;;
44456;SDS011;30159;49.316;8.558;2024-03-02T09:22:21;5.63;;;3.97;;
44456;SDS011;30159;49.316;8.558;2024-03-02T09:24:48;5.80;;;3.60;;
44456;SDS011;30159;49.316;8.558;2024-03-02T09:27:15;6.17;;;4.07;;
44456;SDS011;30159;49.316;8.558;2024-03-02T09:29:43;5.60;;;4.60;;
44456;SDS011;30159;49.316;8.558;2024-03-02T09:32:12;4.67;;;3.60;;
44456;SDS011;30159;49.316;8.558;2024-03-02T09:34:39;5.20;;;3.70;;
44456;SDS011;30159;49.316;8.558;2024-03-02T09:37:06;9.03;;;3.30;;
44456;SDS011;30159;49.316;8.558;2024-03-02T09:39:33;5.13;;;4.13;;
44456;SDS011;30159;49.316;8.558;2024-03-02T09:41:59;8.03;;;4.17;;
44456;SDS011;30159;49.316;8.558;2024-03-02T09:44:26;4.27;;;3.87;;
44456;SDS011;30159;49.316;8.558;2024-03-02T09:46:55;7.20;;;3.57;;
44456;SDS011;30159;49.316;8.558;2024-03-02T09:49:22;4.63;;;3.80;;
44456;SDS011;30159;49.316;8.558;2024-03-02T09:51:49;8.20;;;3.90;;
44456;SDS011;30159;49.316;8.558;2024-03-02T09:54:16;4.43;;;3.37;;
44456;SDS011;30159;49.316;8.558;2024-03-02T09:56:43;5.67;;;3.47;;
44456;SDS011;30159;49.316;8.558;2024-03-02T09:59:10;5.30;;;3.77;;
44456;SDS011;30159;49.316;8.558;2024-03-02T10:01:38;5.50;;;3.53;;
44456;SDS011;30159;49.316;8.558;2024-03-02T10:04:06;8.07;;;3.47;;
44456;SDS011;30159;49.316;8.558;2024-03-02T10:06:33;4.80;;;3.40;;
44456;SDS011;30159;49.316;8.558;2024-03-02T10:09:00;4.17;;;3.67;;
44456;SDS011;30159;49.316;8.558;2024-03-02T10:11:27;5.87;;;3.87;;
44456;SDS011;30159;49.316;8.558;2024-03-02T10:14:05;4.23;;;2.90;;
44456;SDS011;30159;49.316;8.558;2024-03-02T10:16:36;5.47;;;2.90;;
44456;SDS011;30159;49.316;8.558;2024-03-02T10:19:17;6.67;;;3.10;;
44456;SDS011;30159;49.316;8.558;2024-03-02T10:21:45;5.43;;;3.43;;
44456;SDS011;30159;49.316;8.558;2024-03-02T10:24:13;4.57;;;3.80;;
44456;SDS011;30159;49.316;8.558;2024-03-02T10:26:39;4.77;;;2.90;;
44456;SDS011;30159;49.316;8.558;2024-03-02T10:29:07;3.93;;;2.70;;
44456;SDS011;30159;49.316;8.558;2024-03-02T10:31:35;5.40;;;2.47;;
44456;SDS011;30159;49.316;8.558;2024-03-02T10:34:03;4.37;;;3.40;;
44456;SDS011;30159;49.316;8.558;2024-03-02T10:36:31;5.00;;;4.03;;
44456;SDS011;30159;49.316;8.558;2024-03-02T10:38:58;4.43;;;3.80;;
44456;SDS011;30159;49.316;8.558;2024-03-02T10:41:26;3.53;;;3.20;;
44456;SDS011;30159;49.316;8.558;2024-03-02T10:43:53;4.87;;;4.00;;
44456;SDS011;30159;49.316;8.558;2024-03-02T10:46:24;4.03;;;2.53;;
44456;SDS011;30159;49.316;8.558;2024-03-02T10:48:54;3.57;;;2.73;;
44456;SDS011;30159;49.316;8.558;2024-03-02T10:51:21;4.23;;;3.50;;
44456;SDS011;30159;49.316;8.558;2024-03-02T10:53:48;3.43;;;3.13;;
44456;SDS011;30159;49.316;8.558;2024-03-02T10:56:16;4.37;;;3.17;;
44456;SDS011;30159;49.316;8.558;2024-03-02T10:58:52;3.53;;;3.07;;
44456;SDS011;30159;49.316;8.558;2024-03-02T11:01:26;3.90;;;2.90;;
44456;SDS011;30159;49.316;8.558;2024-03-02T11:03:54;5.37;;;3.67;;
44456;SDS011;30159;49.316;8.558;2024-03-02T11:06:22;3.50;;;3.20;;
44456;SDS011;30159;49.316;8.558;2024-03-02T11:08:53;2.90;;;2.70;;
44456;SDS011;30159;49.316;8.558;2024-03-02T11:11:29;4.60;;;3.63;;
44456;SDS011;30159;49.316;8.558;2024-03-02T11:14:00;3.47;;;2.67;;
44456;SDS011;30159;49.316;8.558;2024-03-02T11:16:34;2.37;;;2.10;;
44456;SDS011;30159;49.316;8.558;2024-03-02T11:19:02;2.60;;;2.23;;
44456;SDS011;30159;49.316;8.558;2024-03-02T11:21:31;2.50;;;1.90;;
44456;SDS011;30159;49.316;8.558;2024-03-02T11:24:00;2.00;;;1.80;;
44456;SDS011;30159;49.316;8.558;2024-03-02T11:26:27;3.80;;;3.40;;
44456;SDS011;30159;49.316;8.558;2024-03-02T11:28:54;3.73;;;2.80;;
44456;SDS011;30159;49.316;8.558;2024-03-02T11:31:22;2.40;;;2.20;;
44456;SDS011;30159;49.316;8.558;2024-03-02T11:33:48;2.67;;;2.47;;
44456;SDS011;30159;49.316;8.558;2024-03-02T11:36:15;2.37;;;2.03;;
44456;SDS011;30159;49.316;8.558;2024-03-02T11:38:43;3.07;;;2.00;;
44456;SDS011;30159;49.316;8.558;2024-03-02T11:41:11;2.77;;;1.97;;
44456;SDS011;30159;49.316;8.558;2024-03-02T11:43:39;1.60;;;1.50;;
44456;SDS011;30159;49.316;8.558;2024-03-02T11:46:06;1.83;;;1.50;;
44456;SDS011;30159;49.316;8.558;2024-03-02T11:48:34;1.70;;;1.60;;
44456;SDS011;30159;49.316;8.558;2024-03-02T11:51:02;2.97;;;1.70;;
44456;SDS011;30159;49.316;8.558;2024-03-02T11:53:28;1.57;;;1.40;;
44456;SDS011;30159;49.316;8.558;2024-03-02T11:55:58;2.17;;;1.70;;
44456;SDS011;30159;49.316;8.558;2024-03-02T11:58:28;2.10;;;1.90;;
44456;SDS011;30159;49.316;8.558;2024-03-02T12:00:54;1.70;;;1.50;;
44456;SDS011;30159;49.316;8.558;2024-03-02T12:03:22;1.73;;;1.63;;
44456;SDS011;30159;49.316;8.558;2024-03-02T12:05:50;2.30;;;1.60;;
44456;SDS011;30159;49.316;8.558;2024-03-02T12:08:18;2.07;;;1.90;;
44456;SDS011;30159;49.316;8.558;2024-03-02T12:10:55;2.30;;;1.83;;
44456;SDS011;30159;49.316;8.558;2024-03-02T12:13:22;1.40;;;1.20;;
44456;SDS011;30159;49.316;8.558;2024-03-02T12:15:52;1.70;;;1.40;;
44456;SDS011;30159;49.316;8.558;2024-03-02T12:18:20;1.50;;;1.40;;
44456;SDS011;30159;49.316;8.558;2024-03-02T12:20:48;2.20;;;1.67;;
44456;SDS011;30159;49.316;8.558;2024-03-02T12:23:15;2.37;;;2.10;;
44456;SDS011;30159;49.316;8.558;2024-03-02T12:25:42;1.57;;;1.43;;
44456;SDS011;30159;49.316;8.558;2024-03-02T12:28:09;1.70;;;1.30;;
44456;SDS011;30159;49.316;8.558;2024-03-02T12:30:35;1.77;;;1.67;;
44456;SDS011;30159;49.316;8.558;2024-03-02T12:33:04;2.20;;;1.60;;
44456;SDS011;30159;49.316;8.558;2024-03-02T12:35:31;2.30;;;2.03;;
44456;SDS011;30159;49.316;8.558;2024-03-02T12:37:57;3.07;;;2.27;;
44456;SDS011;30159;49.316;8.558;2024-03-02T12:40:24;2.67;;;2.10;;
44456;SDS011;30159;49.316;8.558;2024-03-02T12:42:52;2.37;;;2.10;;
44456;SDS011;30159;49.316;8.558;2024-03-02T12:45:20;1.67;;;1.57;;
44456;SDS011;30159;49.316;8.558;2024-03-02T12:47:48;2.60;;;1.80;;
44456;SDS011;30159;49.316;8.558;2024-03-02T12:50:17;1.70;;;1.60;;
44456;SDS011;30159;49.316;8.558;2024-03-02T12:52:50;2.77;;;2.50;;
44456;SDS011;30159;49.316;8.558;2024-03-02T12:55:17;2.40;;;2.20;;
44456;SDS011;30159;49.316;8.558;2024-03-02T12:57:44;2.70;;;2.13;;
44456;SDS011;30159;49.316;8.558;2024-03-02T13:00:11;3.57;;;2.47;;
44456;SDS011;30159;49.316;8.558;2024-03-02T13:02:39;1.80;;;1.60;;
44456;SDS011;30159;49.316;8.558;2024-03-02T13:05:07;3.50;;;1.90;;
44456;SDS011;30159;49.316;8.558;2024-03-02T13:07:37;2.07;;;1.87;;
44456;SDS011;30159;49.316;8.558;2024-03-02T13:10:04;2.23;;;2.03;;
44456;SDS011;30159;49.316;8.558;2024-03-02T13:12:32;2.33;;;2.23;;
44456;SDS011;30159;49.316;8.558;2024-03-02T13:14:59;1.80;;;1.57;;
44456;SDS011;30159;49.316;8.558;2024-03-02T13:17:27;2.37;;;1.87;;
44456;SDS011;30159;49.316;8.558;2024-03-02T13:19:54;2.33;;;2.00;;
44456;SDS011;30159;49.316;8.558;2024-03-02T13:22:22;3.43;;;1.70;;
44456;SDS011;30159;49.316;8.558;2024-03-02T13:24:50;2.13;;;1.80;;
44456;SDS011;30159;49.316;8.558;2024-03-02T13:27:18;1.97;;;1.70;;
44456;SDS011;30159;49.316;8.558;2024-03-02T13:29:45;2.17;;;1.53;;
44456;SDS011;30159;49.316;8.558;2024-03-02T13:32:13;2.73;;;2.27;;
44456;SDS011;30159;49.316;8.558;2024-03-02T13:34:40;2.10;;;1.90;;
44456;SDS011;30159;49.316;8.558;2024-03-02T13:37:07;1.47;;;1.37;;
44456;SDS011;30159;49.316;8.558;2024-03-02T13:39:33;2.60;;;1.87;;
44456;SDS011;30159;49.316;8.558;2024-03-02T13:42:06;1.60;;;1.50;;
44456;SDS011;30159;49.316;8.558;2024-03-02T13:44:33;1.37;;;1.20;;
44456;SDS011;30159;49.316;8.558;2024-03-02T13:47:00;3.10;;;1.50;;
44456;SDS011;30159;49.316;8.558;2024-03-02T13:49:27;1.20;;;1.10;;
44456;SDS011;30159;49.316;8.558;2024-03-02T13:51:58;1.40;;;1.20;;
44456;SDS011;30159;49.316;8.558;2024-03-02T13:54:28;1.60;;;1.20;;
44456;SDS011;30159;49.316;8.558;2024-03-02T13:56:55;1.30;;;1.10;;
44456;SDS011;30159;49.316;8.558;2024-03-02T13:59:24;1.27;;;1.17;;
44456;SDS011;30159;49.316;8.558;2024-03-02T14:01:52;1.53;;;1.40;;
44456;SDS011;30159;49.316;8.558;2024-03-02T14:04:19;1.50;;;1.40;;
44456;SDS011;30159;49.316;8.558;2024-03-02T14:06:46;2.47;;;1.33;;
44456;SDS011;30159;49.316;8.558;2024-03-02T14:09:12;1.30;;;1.20;;
44456;SDS011;30159;49.316;8.558;2024-03-02T14:11:40;2.63;;;1.53;;
44456;SDS011;30159;49.316;8.558;2024-03-02T14:14:06;1.13;;;1.03;;
44456;SDS011;30159;49.316;8.558;2024-03-02T14:16:34;1.50;;;1.30;;
44456;SDS011;30159;49.316;8.558;2024-03-02T14:19:01;1.50;;;1.20;;
44456;SDS011;30159;49.316;8.558;2024-03-02T14:21:29;1.07;;;0.97;;
44456;SDS011;30159;49.316;8.558;2024-03-02T14:23:55;1.30;;;1.10;;
44456;SDS011;30159;49.316;8.558;2024-03-02T14:26:22;1.27;;;0.90;;
44456;SDS011;30159;49.316;8.558;2024-03-02T14:28:49;1.00;;;0.80;;
44456;SDS011;30159;49.316;8.558;2024-03-02T14:31:15;1.00;;;0.80;;
44456;SDS011;30159;49.316;8.558;2024-03-02T14:33:44;1.50;;;1.00;;
44456;SDS011;30159;49.316;8.558;2024-03-02T14:36:10;2.77;;;1.03;;
44456;SDS011;30159;49.316;8.558;2024-03-02T14:38:37;1.10;;;0.97;;
44456;SDS011;30159;49.316;8.558;2024-03-02T14:41:04;0.90;;;0.80;;
44456;SDS011;30159;49.316;8.558;2024-03-02T14:43:31;1.63;;;1.07;;
44456;SDS011;30159;49.316;8.558;2024-03-02T14:45:57;1.00;;;0.80;;